sensor_id;sensor_type;location;lat;lon;timestamp;P1;durP1;ratioP1;P2;durP2;ratioP2
14939;SDS011;11825;51.898;8.202;2024-01-11T00:04:06;41.83;;;27.47;;
14939;SDS011;11825;51.898;8.202;2024-01-11T00:09:13;43.90;;;28.03;;
14939;SDS011;11825;51.898;8.202;2024-01-11T00:14:15;50.47;;;30.37;;
14939;SDS011;11825;51.898;8.202;2024-01-11T00:19:19;49.90;;;29.10;;
14939;SDS011;11825;51.898;8.202;2024-01-11T00:24:24;48.03;;;28.07;;
14939;SDS011;11825;51.898;8.202;2024-01-11T00:29:35;42.57;;;28.10;;
14939;SDS011;11825;51.898;8.202;2024-01-11T00:34:37;40.80;;;28.33;;
14939;SDS011;11825;51.898;8.202;2024-01-11T00:39:42;46.17;;;27.13;;
14939;SDS011;11825;51.898;8.202;2024-01-11T00:44:47;43.10;;;26.90;;
14939;SDS011;11825;51.898;8.202;2024-01-11T00:49:53;43.13;;;27.63;;
14939;SDS011;11825;51.898;8.202;2024-01-11T00:54:58;48.47;;;28.07;;
14939;SDS011;11825;51.898;8.202;2024-01-11T01:00:03;48.30;;;29.50;;
14939;SDS011;11825;51.898;8.202;2024-01-11T01:05:08;45.10;;;28.13;;
14939;SDS011;11825;51.898;8.202;2024-01-11T01:10:16;43.53;;;28.17;;
14939;SDS011;11825;51.898;8.202;2024-01-11T01:15:18;39.63;;;27.13;;
14939;SDS011;11825;51.898;8.202;2024-01-11T01:20:46;53.50;;;29.00;;
14939;SDS011;11825;51.898;8.202;2024-01-11T01:25:50;55.83;;;28.13;;
14939;SDS011;11825;51.898;8.202;2024-01-11T01:30:54;44.53;;;27.73;;
14939;SDS011;11825;51.898;8.202;2024-01-11T01:35:58;41.17;;;27.40;;
14939;SDS011;11825;51.898;8.202;2024-01-11T01:41:01;45.37;;;26.37;;
14939;SDS011;11825;51.898;8.202;2024-01-11T01:46:08;47.97;;;28.70;;
14939;SDS011;11825;51.898;8.202;2024-01-11T01:51:10;48.53;;;28.77;;
14939;SDS011;11825;51.898;8.202;2024-01-11T01:56:16;44.87;;;27.97;;
14939;SDS011;11825;51.898;8.202;2024-01-11T02:01:18;42.77;;;26.43;;
14939;SDS011;11825;51.898;8.202;2024-01-11T02:06:24;41.90;;;25.57;;
14939;SDS011;11825;51.898;8.202;2024-01-11T02:11:28;49.17;;;27.57;;
14939;SDS011;11825;51.898;8.202;2024-01-11T02:16:32;45.90;;;26.30;;
14939;SDS011;11825;51.898;8.202;2024-01-11T02:21:34;44.10;;;27.80;;
14939;SDS011;11825;51.898;8.202;2024-01-11T02:26:44;44.53;;;27.07;;
14939;SDS011;11825;51.898;8.202;2024-01-11T02:32:03;40.33;;;25.37;;
14939;SDS011;11825;51.898;8.202;2024-01-11T02:37:07;45.07;;;26.90;;
14939;SDS011;11825;51.898;8.202;2024-01-11T02:42:09;43.10;;;25.70;;
14939;SDS011;11825;51.898;8.202;2024-01-11T02:47:11;41.53;;;26.80;;
14939;SDS011;11825;51.898;8.202;2024-01-11T02:52:13;43.40;;;25.83;;
14939;SDS011;11825;51.898;8.202;2024-01-11T02:57:17;44.27;;;28.00;;
14939;SDS011;11825;51.898;8.202;2024-01-11T03:02:21;45.53;;;26.97;;
14939;SDS011;11825;51.898;8.202;2024-01-11T03:07:23;43.23;;;27.60;;
14939;SDS011;11825;51.898;8.202;2024-01-11T03:12:24;50.73;;;27.50;;
14939;SDS011;11825;51.898;8.202;2024-01-11T03:17:28;49.00;;;25.83;;
14939;SDS011;11825;51.898;8.202;2024-01-11T03:22:31;44.67;;;26.23;;
14939;SDS011;11825;51.898;8.202;2024-01-11T03:27:32;41.37;;;27.93;;
14939;SDS011;11825;51.898;8.202;2024-01-11T03:32:36;48.47;;;28.90;;
14939;SDS011;11825;51.898;8.202;2024-01-11T03:37:40;44.33;;;26.93;;
14939;SDS011;11825;51.898;8.202;2024-01-11T03:42:44;42.87;;;26.40;;
14939;SDS011;11825;51.898;8.202;2024-01-11T03:47:46;43.67;;;26.80;;
14939;SDS011;11825;51.898;8.202;2024-01-11T03:52:50;46.60;;;28.00;;
14939;SDS011;11825;51.898;8.202;2024-01-11T03:57:55;48.90;;;28.03;;
14939;SDS011;11825;51.898;8.202;2024-01-11T04:03:00;48.13;;;29.17;;
14939;SDS011;11825;51.898;8.202;2024-01-11T04:08:04;41.17;;;26.00;;
14939;SDS011;11825;51.898;8.202;2024-01-11T04:13:09;41.80;;;27.77;;
14939;SDS011;11825;51.898;8.202;2024-01-11T04:18:11;51.03;;;27.40;;
14939;SDS011;11825;51.898;8.202;2024-01-11T04:23:17;46.57;;;28.77;;
14939;SDS011;11825;51.898;8.202;2024-01-11T04:28:21;45.90;;;26.23;;
14939;SDS011;11825;51.898;8.202;2024-01-11T04:33:23;44.97;;;26.77;;
14939;SDS011;11825;51.898;8.202;2024-01-11T04:38:25;44.33;;;27.13;;
14939;SDS011;11825;51.898;8.202;2024-01-11T04:43:27;46.33;;;27.73;;
14939;SDS011;11825;51.898;8.202;2024-01-11T04:48:29;46.80;;;29.37;;
14939;SDS011;11825;51.898;8.202;2024-01-11T04:53:31;42.93;;;26.93;;
14939;SDS011;11825;51.898;8.202;2024-01-11T04:58:33;45.43;;;26.30;;
14939;SDS011;11825;51.898;8.202;2024-01-11T05:03:35;49.00;;;29.23;;
14939;SDS011;11825;51.898;8.202;2024-01-11T05:08:37;43.50;;;27.80;;
14939;SDS011;11825;51.898;8.202;2024-01-11T05:13:41;49.40;;;28.77;;
14939;SDS011;11825;51.898;8.202;2024-01-11T05:18:43;43.43;;;26.10;;
14939;SDS011;11825;51.898;8.202;2024-01-11T05:23:44;45.27;;;29.60;;
14939;SDS011;11825;51.898;8.202;2024-01-11T05:28:46;43.43;;;27.17;;
14939;SDS011;11825;51.898;8.202;2024-01-11T05:33:48;52.30;;;30.17;;
14939;SDS011;11825;51.898;8.202;2024-01-11T05:38:50;48.70;;;29.80;;
14939;SDS011;11825;51.898;8.202;2024-01-11T05:43:55;52.43;;;28.87;;
14939;SDS011;11825;51.898;8.202;2024-01-11T05:48:56;44.47;;;27.23;;
14939;SDS011;11825;51.898;8.202;2024-01-11T05:53:58;48.37;;;30.10;;
14939;SDS011;11825;51.898;8.202;2024-01-11T05:59:00;49.17;;;30.40;;
14939;SDS011;11825;51.898;8.202;2024-01-11T06:04:02;52.37;;;28.93;;
14939;SDS011;11825;51.898;8.202;2024-01-11T06:09:04;49.93;;;29.87;;
14939;SDS011;11825;51.898;8.202;2024-01-11T06:14:09;52.93;;;29.83;;
14939;SDS011;11825;51.898;8.202;2024-01-11T06:19:13;50.63;;;29.23;;
14939;SDS011;11825;51.898;8.202;2024-01-11T06:24:15;45.87;;;27.50;;
14939;SDS011;11825;51.898;8.202;2024-01-11T06:29:17;55.87;;;34.80;;
14939;SDS011;11825;51.898;8.202;2024-01-11T06:34:19;47.87;;;29.13;;
14939;SDS011;11825;51.898;8.202;2024-01-11T06:39:21;51.87;;;29.67;;
14939;SDS011;11825;51.898;8.202;2024-01-11T06:44:23;44.17;;;27.73;;
14939;SDS011;11825;51.898;8.202;2024-01-11T06:49:24;41.07;;;26.60;;
14939;SDS011;11825;51.898;8.202;2024-01-11T06:54:26;46.53;;;29.70;;
14939;SDS011;11825;51.898;8.202;2024-01-11T06:59:28;54.53;;;31.90;;
14939;SDS011;11825;51.898;8.202;2024-01-11T07:04:30;51.00;;;31.23;;
14939;SDS011;11825;51.898;8.202;2024-01-11T07:09:35;51.87;;;30.73;;
14939;SDS011;11825;51.898;8.202;2024-01-11T07:14:36;51.13;;;30.83;;
14939;SDS011;11825;51.898;8.202;2024-01-11T07:19:38;52.13;;;31.17;;
14939;SDS011;11825;51.898;8.202;2024-01-11T07:24:40;54.90;;;32.47;;
14939;SDS011;11825;51.898;8.202;2024-01-11T07:29:41;51.77;;;30.67;;
14939;SDS011;11825;51.898;8.202;2024-01-11T07:34:43;52.67;;;29.73;;
14939;SDS011;11825;51.898;8.202;2024-01-11T07:39:45;49.70;;;30.47;;
14939;SDS011;11825;51.898;8.202;2024-01-11T07:44:47;53.70;;;31.07;;
14939;SDS011;11825;51.898;8.202;2024-01-11T07:49:48;49.00;;;32.30;;
14939;SDS011;11825;51.898;8.202;2024-01-11T07:54:50;53.63;;;32.43;;
14939;SDS011;11825;51.898;8.202;2024-01-11T07:59:52;46.37;;;31.30;;
14939;SDS011;11825;51.898;8.202;2024-01-11T08:04:53;58.10;;;33.37;;
14939;SDS011;11825;51.898;8.202;2024-01-11T08:09:55;52.87;;;32.93;;
14939;SDS011;11825;51.898;8.202;2024-01-11T08:14:57;53.60;;;32.83;;
14939;SDS011;11825;51.898;8.202;2024-01-11T08:19:59;56.57;;;32.90;;
14939;SDS011;11825;51.898;8.202;2024-01-11T08:25:01;49.30;;;31.47;;
14939;SDS011;11825;51.898;8.202;2024-01-11T08:30:06;54.03;;;30.80;;
14939;SDS011;11825;51.898;8.202;2024-01-11T08:35:09;54.67;;;34.17;;
14939;SDS011;11825;51.898;8.202;2024-01-11T08:40:11;59.10;;;33.13;;
14939;SDS011;11825;51.898;8.202;2024-01-11T08:45:13;51.17;;;33.47;;
14939;SDS011;11825;51.898;8.202;2024-01-11T08:50:19;62.10;;;34.40;;
14939;SDS011;11825;51.898;8.202;2024-01-11T08:55:25;72.07;;;40.93;;
14939;SDS011;11825;51.898;8.202;2024-01-11T09:00:27;51.67;;;35.47;;
14939;SDS011;11825;51.898;8.202;2024-01-11T09:05:29;50.77;;;33.30;;
14939;SDS011;11825;51.898;8.202;2024-01-11T09:10:31;48.57;;;31.37;;
14939;SDS011;11825;51.898;8.202;2024-01-11T09:15:33;43.43;;;30.77;;
14939;SDS011;11825;51.898;8.202;2024-01-11T09:20:35;41.60;;;28.43;;
14939;SDS011;11825;51.898;8.202;2024-01-11T09:25:37;45.47;;;32.13;;
14939;SDS011;11825;51.898;8.202;2024-01-11T09:30:38;45.67;;;29.80;;
14939;SDS011;11825;51.898;8.202;2024-01-11T09:35:40;39.30;;;29.10;;
14939;SDS011;11825;51.898;8.202;2024-01-11T09:40:42;38.43;;;28.17;;
14939;SDS011;11825;51.898;8.202;2024-01-11T09:45:44;39.53;;;30.53;;
14939;SDS011;11825;51.898;8.202;2024-01-11T09:50:47;40.00;;;29.67;;
14939;SDS011;11825;51.898;8.202;2024-01-11T09:55:49;36.37;;;28.53;;
14939;SDS011;11825;51.898;8.202;2024-01-11T10:00:54;38.87;;;28.07;;
14939;SDS011;11825;51.898;8.202;2024-01-11T10:05:57;37.20;;;27.77;;
14939;SDS011;11825;51.898;8.202;2024-01-11T10:11:05;37.00;;;27.77;;
14939;SDS011;11825;51.898;8.202;2024-01-11T10:16:20;41.47;;;27.73;;
14939;SDS011;11825;51.898;8.202;2024-01-11T10:21:23;37.57;;;26.47;;
14939;SDS011;11825;51.898;8.202;2024-01-11T10:26:59;32.47;;;26.13;;
14939;SDS011;11825;51.898;8.202;2024-01-11T10:32:05;41.43;;;27.03;;
14939;SDS011;11825;51.898;8.202;2024-01-11T10:37:07;38.23;;;27.90;;
14939;SDS011;11825;51.898;8.202;2024-01-11T10:42:12;34.57;;;25.20;;
14939;SDS011;11825;51.898;8.202;2024-01-11T10:47:15;37.17;;;25.93;;
14939;SDS011;11825;51.898;8.202;2024-01-11T10:52:18;34.13;;;26.23;;
14939;SDS011;11825;51.898;8.202;2024-01-11T10:57:24;41.67;;;26.43;;
14939;SDS011;11825;51.898;8.202;2024-01-11T11:02:29;33.50;;;24.90;;
14939;SDS011;11825;51.898;8.202;2024-01-11T11:07:35;34.47;;;25.30;;
14939;SDS011;11825;51.898;8.202;2024-01-11T11:12:41;33.60;;;25.10;;
14939;SDS011;11825;51.898;8.202;2024-01-11T11:17:46;29.40;;;22.10;;
14939;SDS011;11825;51.898;8.202;2024-01-11T11:22:49;32.10;;;21.60;;
14939;SDS011;11825;51.898;8.202;2024-01-11T11:28:06;27.33;;;21.37;;
14939;SDS011;11825;51.898;8.202;2024-01-11T11:33:09;29.37;;;20.73;;
14939;SDS011;11825;51.898;8.202;2024-01-11T11:38:29;28.30;;;20.23;;
14939;SDS011;11825;51.898;8.202;2024-01-11T11:43:32;27.03;;;20.37;;
14939;SDS011;11825;51.898;8.202;2024-01-11T11:53:47;28.13;;;20.07;;
14939;SDS011;11825;51.898;8.202;2024-01-11T11:58:56;28.37;;;18.10;;
14939;SDS011;11825;51.898;8.202;2024-01-11T12:04:04;27.20;;;18.43;;
14939;SDS011;11825;51.898;8.202;2024-01-11T13:51:50;24.43;;;14.77;;
14939;SDS011;11825;51.898;8.202;2024-01-11T15:42:45;32.00;;;19.70;;
14939;SDS011;11825;51.898;8.202;2024-01-11T15:58:51;35.70;;;20.67;;
14939;SDS011;11825;51.898;8.202;2024-01-11T16:03:58;41.87;;;21.97;;
14939;SDS011;11825;51.898;8.202;2024-01-11T16:09:06;40.17;;;22.67;;
14939;SDS011;11825;51.898;8.202;2024-01-11T16:14:10;35.57;;;22.83;;
14939;SDS011;11825;51.898;8.202;2024-01-11T16:19:13;36.33;;;22.07;;
14939;SDS011;11825;51.898;8.202;2024-01-11T16:24:18;36.10;;;21.63;;
14939;SDS011;11825;51.898;8.202;2024-01-11T16:29:20;37.37;;;22.00;;
14939;SDS011;11825;51.898;8.202;2024-01-11T19:09:35;52.30;;;30.27;;
14939;SDS011;11825;51.898;8.202;2024-01-11T19:39:54;58.37;;;31.60;;
14939;SDS011;11825;51.898;8.202;2024-01-11T20:05:15;63.23;;;33.30;;
14939;SDS011;11825;51.898;8.202;2024-01-11T21:34:07;61.23;;;30.17;;
14939;SDS011;11825;51.898;8.202;2024-01-11T22:19:13;58.10;;;25.07;;
14939;SDS011;11825;51.898;8.202;2024-01-11T22:24:43;53.50;;;25.07;;
14939;SDS011;11825;51.898;8.202;2024-01-11T22:30:29;48.70;;;24.57;;
14939;SDS011;11825;51.898;8.202;2024-01-11T22:35:35;48.70;;;24.07;;
14939;SDS011;11825;51.898;8.202;2024-01-11T23:31:47;50.90;;;23.80;;
14939;SDS011;11825;51.898;8.202;2024-01-11T23:36:54;42.47;;;22.83;;
14939;SDS011;11825;51.898;8.202;2024-01-11T23:41:56;47.90;;;21.37;;
14939;SDS011;11825;51.898;8.202;2024-01-11T23:47:04;50.30;;;22.23;;
14939;SDS011;11825;51.898;8.202;2024-01-11T23:52:12;55.90;;;25.00;;
14939;SDS011;11825;51.898;8.202;2024-01-11T23:57:24;56.13;;;26.00;;
